Richards, MO (64778)

3:51 PM CDT on August 28, 2015 (GMT -0500)
DEAN'S WEATHER STATION | | Change Station
CLOSE
Current Station
Personal Weather Station
Location: PRESCOTT, KS
Elevation: 909 ft
Nearby Weather Stations

Elev 909 ft 38.08 °N, 94.77 °W | Updated 6 seconds ago

Mostly Cloudy
Mostly Cloudy
75.1 °F
Feels Like 75 °F
N
9.2
Wind Variable Wind from SSW
Gusts 9.2 mph

Today
High -- | Low -- °F
--% Chance of Precip.
Yesterday
High -- | Low -- °F
Precip. -- in
6:44 AM 7:53 PM
Waxing Gibbous, 99% visible
Pressure 29.94 in
Visibility 10.0 miles
Clouds Scattered Clouds 12000 ft
Heat Index 75 °F
Dew Point 70 °F
Humidity 83%
Rainfall 0.02 in
Snow Depth Not available.
UV 7 out of 12
Pollen 10.00 out of 12
Air Quality Not available.
Flu Activity Not available.
METAR KCNU 281952Z AUTO 17016KT 10SM SCT120 23/19 A2996 RMK AO2 SLP136 T02330194
Pressure 29.94 in
Visibility 10.0 miles
Clouds Scattered Clouds 12000 ft
Heat Index 75 °F
Dew Point 70 °F
Humidity 83%
Rainfall 0.02 in
Snow Depth Not available.
UV 7 out of 12
Pollen 10.00 out of 12
Air Quality Not available.
Flu Activity Not available.
METAR KCNU 281952Z AUTO 17016KT 10SM SCT120 23/19 A2996 RMK AO2 SLP136 T02330194

10-Day Weather Forecast

×

Almanac

Astronomy

Aug. 28, 2015 Rise Set
Actual Time
Civil Twilight
Nautical Twilight
Astronomical Twilight
Moon
Length of Visible Light
Length of Day
Tomorrow will be .
, % of the Moon is Illuminated

Today's Extremes

State Highs State Lows

Community

WunderPhotos

Upload Photos

1,850,481 photos uploaded!

WunderBlogs® & News

Nearby

Air Quality

  Air Quality AQ Index Pollutant
Not available.

Snow Depth

Station Depth Elevation

Earthquake Activity

City Distance Mag. Time & Date
Minimum magnitude displayed is 2.5.

Coastal Water Temperatures

Place Temperature

Stations

Nearby Weather Stations

Station Location Temp. Windchill Dew Point Humidity Wind Precip. Elev Updated Type